sensor_id;sensor_type;location;lat;lon;timestamp;pressure;altitude;pressure_sealevel;temperature;humidity
73105;BME280;61296;50.526;30.792;2023-04-03T00:14:56;98769.88;;;4.69;100.00
73105;BME280;61296;50.526;30.792;2023-04-03T00:30:22;98740.75;;;4.53;100.00
73105;BME280;61296;50.526;30.792;2023-04-03T00:45:44;98780.56;;;4.93;100.00
73105;BME280;61296;50.526;30.792;2023-04-03T01:01:08;98725.19;;;4.54;100.00
73105;BME280;61296;50.526;30.792;2023-04-03T01:16:29;98751.25;;;4.71;100.00
73105;BME280;61296;50.526;30.792;2023-04-03T01:31:55;98732.75;;;4.60;100.00
73105;BME280;61296;50.526;30.792;2023-04-03T01:47:15;98699.41;;;4.32;100.00
73105;BME280;61296;50.526;30.792;2023-04-03T02:02:34;98778.38;;;4.83;100.00
73105;BME280;61296;50.526;30.792;2023-04-03T02:17:54;98646.44;;;3.94;100.00
73105;BME280;61296;50.526;30.792;2023-04-03T02:33:14;98672.50;;;4.11;100.00
73105;BME280;61296;50.526;30.792;2023-04-03T02:48:34;98696.94;;;4.27;100.00
73105;BME280;61296;50.526;30.792;2023-04-03T03:03:54;98719.69;;;4.50;100.00
73105;BME280;61296;50.526;30.792;2023-04-03T03:19:13;98786.25;;;4.88;100.00
73105;BME280;61296;50.526;30.792;2023-04-03T03:34:33;98774.44;;;4.80;100.00
73105;BME280;61296;50.526;30.792;2023-04-03T03:49:52;98763.63;;;4.68;100.00
73105;BME280;61296;50.526;30.792;2023-04-03T04:05:13;98729.41;;;4.51;100.00
73105;BME280;61296;50.526;30.792;2023-04-03T04:20:39;98651.97;;;3.98;100.00
73105;BME280;61296;50.526;30.792;2023-04-03T04:35:58;98736.28;;;4.45;100.00
73105;BME280;61296;50.526;30.792;2023-04-03T04:51:18;98815.00;;;5.01;100.00
73105;BME280;61296;50.526;30.792;2023-04-03T05:06:38;98811.53;;;5.04;100.00
73105;BME280;61296;50.526;30.792;2023-04-03T05:22:03;98806.34;;;4.99;100.00
73105;BME280;61296;50.526;30.792;2023-04-03T05:37:23;98737.31;;;4.56;100.00
73105;BME280;61296;50.526;30.792;2023-04-03T05:52:47;98743.50;;;4.73;100.00
73105;BME280;61296;50.526;30.792;2023-04-03T06:08:07;98647.22;;;4.11;100.00
73105;BME280;61296;50.526;30.792;2023-04-03T06:23:28;98799.56;;;5.09;100.00
73105;BME280;61296;50.526;30.792;2023-04-03T06:38:48;98850.75;;;5.35;100.00
73105;BME280;61296;50.526;30.792;2023-04-03T06:54:07;98765.00;;;4.93;100.00
73105;BME280;61296;50.526;30.792;2023-04-03T07:09:27;98789.31;;;5.02;100.00
73105;BME280;61296;50.526;30.792;2023-04-03T07:24:46;98800.09;;;5.34;100.00
73105;BME280;61296;50.526;30.792;2023-04-03T07:40:06;98888.19;;;6.12;100.00
73105;BME280;61296;50.526;30.792;2023-04-03T07:55:26;98848.75;;;5.90;100.00
73105;BME280;61296;50.526;30.792;2023-04-03T08:27:49;98907.44;;;6.61;100.00
73105;BME280;61296;50.526;30.792;2023-04-03T08:43:55;98750.13;;;5.68;100.00
73105;BME280;61296;50.526;30.792;2023-04-03T08:59:32;98765.97;;;5.82;100.00
73105;BME280;61296;50.526;30.792;2023-04-03T09:31:53;98852.41;;;7.12;100.00
73105;BME280;61296;50.526;30.792;2023-04-03T09:47:26;98777.56;;;6.67;100.00
73105;BME280;61296;50.526;30.792;2023-04-03T10:02:50;98920.72;;;7.61;100.00
73105;BME280;61296;50.526;30.792;2023-04-03T10:18:39;98822.66;;;6.80;100.00
73105;BME280;61296;50.526;30.792;2023-04-03T10:34:09;98900.16;;;7.44;100.00
73105;BME280;61296;50.526;30.792;2023-04-03T10:50:06;98977.66;;;8.08;100.00
73105;BME280;61296;50.526;30.792;2023-04-03T11:05:48;98981.03;;;7.98;100.00
73105;BME280;61296;50.526;30.792;2023-04-03T11:21:29;98894.00;;;7.24;100.00
73105;BME280;61296;50.526;30.792;2023-04-03T11:36:56;98868.09;;;6.88;100.00
73105;BME280;61296;50.526;30.792;2023-04-03T12:39:43;98994.50;;;6.62;100.00
73105;BME280;61296;50.526;30.792;2023-04-03T12:55:20;98837.66;;;4.89;100.00
73105;BME280;61296;50.526;30.792;2023-04-03T13:10:54;98970.31;;;5.17;100.00
73105;BME280;61296;50.526;30.792;2023-04-03T13:26:22;98933.06;;;4.30;100.00
73105;BME280;61296;50.526;30.792;2023-04-03T13:41:44;99056.25;;;4.83;100.00
73105;BME280;61296;50.526;30.792;2023-04-03T13:57:14;99023.31;;;4.04;100.00
73105;BME280;61296;50.526;30.792;2023-04-03T14:12:36;99140.72;;;4.43;100.00
73105;BME280;61296;50.526;30.792;2023-04-03T14:27:56;98930.75;;;2.63;100.00
73105;BME280;61296;50.526;30.792;2023-04-03T14:43:15;99173.53;;;3.97;100.00
73105;BME280;61296;50.526;30.792;2023-04-03T14:58:40;99159.34;;;3.67;100.00
73105;BME280;61296;50.526;30.792;2023-04-03T15:13:59;99189.38;;;3.59;100.00
73105;BME280;61296;50.526;30.792;2023-04-03T15:29:18;99124.13;;;2.80;100.00
73105;BME280;61296;50.526;30.792;2023-04-03T15:44:39;99221.75;;;3.18;100.00
73105;BME280;61296;50.526;30.792;2023-04-03T15:59:58;99015.59;;;1.55;100.00
73105;BME280;61296;50.526;30.792;2023-04-03T16:15:17;99095.44;;;1.87;100.00
73105;BME280;61296;50.526;30.792;2023-04-03T16:30:37;99054.44;;;1.38;100.00
73105;BME280;61296;50.526;30.792;2023-04-03T16:45:58;99062.47;;;1.18;100.00
73105;BME280;61296;50.526;30.792;2023-04-03T17:01:19;99188.81;;;1.78;100.00
73105;BME280;61296;50.526;30.792;2023-04-03T17:16:39;99184.28;;;1.52;100.00
73105;BME280;61296;50.526;30.792;2023-04-03T17:31:58;99280.25;;;2.07;100.00
73105;BME280;61296;50.526;30.792;2023-04-03T17:47:18;99239.63;;;1.34;100.00
73105;BME280;61296;50.526;30.792;2023-04-03T18:02:38;99210.00;;;1.29;100.00
73105;BME280;61296;50.526;30.792;2023-04-03T18:17:58;99132.19;;;0.56;100.00
73105;BME280;61296;50.526;30.792;2023-04-03T18:33:18;99310.19;;;1.55;100.00
73105;BME280;61296;50.526;30.792;2023-04-03T18:48:37;99295.91;;;1.28;100.00
73105;BME280;61296;50.526;30.792;2023-04-03T19:04:06;99172.41;;;0.23;100.00
73105;BME280;61296;50.526;30.792;2023-04-03T19:20:06;99200.75;;;0.35;100.00
73105;BME280;61296;50.526;30.792;2023-04-03T19:35:27;99335.56;;;1.15;100.00
73105;BME280;61296;50.526;30.792;2023-04-03T19:50:46;99421.66;;;1.70;100.00
73105;BME280;61296;50.526;30.792;2023-04-03T20:06:06;99414.94;;;1.77;100.00
73105;BME280;61296;50.526;30.792;2023-04-03T20:21:32;99225.59;;;0.45;100.00
73105;BME280;61296;50.526;30.792;2023-04-03T20:36:51;99240.69;;;0.38;100.00
73105;BME280;61296;50.526;30.792;2023-04-03T20:52:11;99441.09;;;1.55;100.00
73105;BME280;61296;50.526;30.792;2023-04-03T21:23:29;99311.78;;;0.78;100.00
73105;BME280;61296;50.526;30.792;2023-04-03T21:38:49;99336.13;;;0.69;100.00
73105;BME280;61296;50.526;30.792;2023-04-03T21:54:16;99290.47;;;0.28;100.00
73105;BME280;61296;50.526;30.792;2023-04-03T22:09:36;99363.50;;;0.68;100.00
73105;BME280;61296;50.526;30.792;2023-04-03T22:24:56;99412.78;;;0.96;100.00
73105;BME280;61296;50.526;30.792;2023-04-03T22:40:16;99291.94;;;0.34;100.00
73105;BME280;61296;50.526;30.792;2023-04-03T22:55:36;99343.88;;;0.62;100.00
73105;BME280;61296;50.526;30.792;2023-04-03T23:10:57;99466.06;;;1.18;100.00
73105;BME280;61296;50.526;30.792;2023-04-03T23:26:18;99433.66;;;0.95;100.00
73105;BME280;61296;50.526;30.792;2023-04-03T23:41:37;99448.97;;;1.00;100.00
73105;BME280;61296;50.526;30.792;2023-04-03T23:56:55;99487.81;;;0.95;100.00
